Time;durP1;ratioP1;P1;durP2;ratioP2;P2;SDS_P1;SDS_P2;PMS_P1;PMS_P2;Temp;Humidity;BMP_temperature;BMP_pressure;BME280_temperature;BME280_humidity;BME280_pressure;Samples;Min_cycle;Max_cycle;Signal;HPM_P1;HPM_P2
2023/09/06 00:00:14;;;;;;;3.00;1.80;;;;;;;18.36;100.00;101087.44;686673;28;1377;-61
2023/09/06 00:00:42;;;;;;;3.30;1.80;;;;;;;18.34;100.00;101102.50;690548;28;976;-61
2023/09/06 00:01:06;;;;;;;3.72;1.88;;;;;;;18.29;100.00;101096.50;692649;28;4824;-60
2023/09/06 00:01:27;;;;;;;3.33;1.75;;;;;;;18.30;100.00;101095.56;693592;28;968;-61
2023/09/06 00:01:48;;;;;;;3.05;1.70;;;;;;;18.29;100.00;101095.59;692970;28;947;-61
2023/09/06 00:02:09;;;;;;;4.20;1.90;;;;;;;18.29;100.00;101096.50;692093;28;2400;-60
2023/09/06 00:02:30;;;;;;;3.45;1.80;;;;;;;18.27;100.00;101090.38;693418;28;1408;-60
2023/09/06 00:02:51;;;;;;;3.53;1.80;;;;;;;18.28;100.00;101094.75;693505;28;829;-61
2023/09/06 00:03:13;;;;;;;3.50;1.90;;;;;;;18.27;100.00;101090.38;692185;28;2601;-61
2023/09/06 00:03:35;;;;;;;3.22;1.77;;;;;;;18.26;100.00;101096.56;693220;28;1063;-60
2023/09/06 00:03:56;;;;;;;3.80;1.83;;;;;;;18.24;100.00;101095.75;690791;28;4585;-62
2023/09/06 00:04:16;;;;;;;3.83;1.97;;;;;;;18.24;100.00;101086.97;692423;28;1481;-60
2023/09/06 00:04:36;;;;;;;3.40;1.90;;;;;;;18.22;100.00;101094.94;692065;28;1410;-60
2023/09/06 00:04:57;;;;;;;3.72;1.80;;;;;;;18.20;100.00;101089.69;691644;28;978;-61
2023/09/06 00:05:17;;;;;;;4.43;2.00;;;;;;;18.19;100.00;101095.91;688566;28;1682;-59
2023/09/06 00:05:41;;;;;;;3.83;2.00;;;;;;;18.20;100.00;101094.13;688236;28;1338;-61
2023/09/06 00:06:03;;;;;;;5.22;2.00;;;;;;;18.17;100.00;101091.56;688611;28;1053;-61
2023/09/06 00:06:23;;;;;;;3.95;1.90;;;;;;;18.18;100.00;101088.03;687657;28;1522;-61
2023/09/06 00:06:43;;;;;;;2.97;1.70;;;;;;;18.20;100.00;101094.97;688013;28;4515;-59
2023/09/06 00:07:05;;;;;;;2.93;1.70;;;;;;;18.19;100.00;101093.25;690115;28;1381;-61
2023/09/06 00:07:26;;;;;;;3.40;1.70;;;;;;;18.18;100.00;101093.31;691923;28;1177;-60
2023/09/06 00:07:46;;;;;;;3.22;1.88;;;;;;;18.17;100.00;101094.22;693107;28;931;-60
2023/09/06 00:08:14;;;;;;;3.97;2.00;;;;;;;18.21;100.00;101098.50;691637;28;2293;-60
2023/09/06 00:08:35;;;;;;;3.40;1.80;;;;;;;18.19;100.00;101101.19;689621;28;817;-60
2023/09/06 00:08:55;;;;;;;3.67;1.90;;;;;;;18.15;100.00;101091.63;690331;28;1358;-61
2023/09/06 00:09:15;;;;;;;3.75;1.80;;;;;;;18.12;100.00;101093.47;689080;28;2580;-60
2023/09/06 00:09:36;;;;;;;4.47;1.80;;;;;;;18.12;100.00;101091.69;690500;28;885;-60
2023/09/06 00:09:56;;;;;;;3.93;1.87;;;;;;;18.08;100.00;101097.13;689718;28;4400;-60
2023/09/06 00:10:17;;;;;;;4.00;1.90;;;;;;;18.08;100.00;101095.34;686271;28;1924;-61
2023/09/06 00:10:40;;;;;;;3.05;1.90;;;;;;;18.08;100.00;101092.69;688717;28;1415;-60
2023/09/06 00:11:04;;;;;;;3.42;2.05;;;;;;;18.08;100.00;101092.69;689520;28;1404;-60
2023/09/06 00:11:26;;;;;;;3.63;1.92;;;;;;;18.07;100.00;101090.97;690193;28;876;-60
2023/09/06 00:11:46;;;;;;;3.15;1.90;;;;;;;18.10;100.00;101090.88;687966;28;884;-59
2023/09/06 00:12:07;;;;;;;3.53;1.90;;;;;;;18.08;100.00;101090.03;689122;28;1688;-60
2023/09/06 00:12:27;;;;;;;4.40;2.00;;;;;;;18.08;100.00;101091.81;692774;28;1063;-60
2023/09/06 00:12:47;;;;;;;3.50;1.97;;;;;;;18.08;100.00;101089.19;692869;28;4507;-61
2023/09/06 00:13:09;;;;;;;3.10;1.87;;;;;;;18.09;100.00;101088.28;689214;28;1847;-60
2023/09/06 00:13:33;;;;;;;3.35;1.90;;;;;;;18.08;100.00;101086.53;687788;28;904;-60
2023/09/06 00:13:55;;;;;;;4.95;1.90;;;;;;;18.04;100.00;101081.34;684613;28;1583;-60
2023/09/06 00:14:15;;;;;;;5.15;2.08;;;;;;;18.03;100.00;101090.19;682895;28;1654;-60
2023/09/06 00:14:36;;;;;;;4.30;2.10;;;;;;;18.01;100.00;101086.72;684667;28;905;-60
2023/09/06 00:14:57;;;;;;;3.70;1.90;;;;;;;18.01;100.00;101089.38;684246;28;848;-60
2023/09/06 00:15:18;;;;;;;3.40;1.80;;;;;;;18.02;100.00;101088.44;687791;28;1917;-60
2023/09/06 00:15:39;;;;;;;3.05;1.80;;;;;;;18.02;100.00;101091.09;689706;28;997;-60
2023/09/06 00:16:00;;;;;;;3.95;1.90;;;;;;;17.99;100.00;101091.19;689916;28;4550;-61
2023/09/06 00:16:21;;;;;;;4.15;2.00;;;;;;;17.98;100.00;101088.59;688565;28;3523;-60
2023/09/06 00:16:42;;;;;;;4.10;2.05;;;;;;;17.95;100.00;101094.81;690422;28;960;-60
2023/09/06 00:17:08;;;;;;;3.50;1.90;;;;;;;17.96;100.00;101093.94;690845;28;817;-61
2023/09/06 00:17:29;;;;;;;3.85;2.00;;;;;;;17.95;100.00;101092.19;689865;28;952;-61
2023/09/06 00:17:49;;;;;;;3.92;1.80;;;;;;;17.94;100.00;101095.72;690218;28;1552;-60
2023/09/06 00:18:10;;;;;;;3.87;1.80;;;;;;;17.96;100.00;101087.78;689627;28;1730;-61
2023/09/06 00:18:32;;;;;;;3.22;1.80;;;;;;;17.96;100.00;101087.78;690114;28;944;-61
2023/09/06 00:18:53;;;;;;;3.45;1.90;;;;;;;17.95;100.00;101093.97;689630;28;4536;-60
2023/09/06 00:19:14;;;;;;;4.40;1.83;;;;;;;17.94;100.00;101095.72;689467;28;2157;-61
2023/09/06 00:19:35;;;;;;;3.63;1.83;;;;;;;17.94;100.00;101090.44;690197;28;1277;-60
2023/09/06 00:19:56;;;;;;;4.07;1.98;;;;;;;17.95;100.00;101089.53;689958;28;921;-61
2023/09/06 00:20:40;;;;;;;4.15;2.10;;;;;;;17.91;100.00;101090.53;690385;28;1015;-60
2023/09/06 00:21:01;;;;;;;3.90;2.07;;;;;;;17.91;100.00;101093.19;691614;28;1338;-59
2023/09/06 00:21:22;;;;;;;3.33;1.90;;;;;;;17.91;100.00;101089.66;691554;28;1921;-61
2023/09/06 00:21:43;;;;;;;3.80;1.90;;;;;;;17.89;100.00;101092.34;691062;28;4538;-61
2023/09/06 00:22:03;;;;;;;4.80;1.90;;;;;;;17.88;100.00;101087.94;691752;28;1276;-60
2023/09/06 00:22:24;;;;;;;5.60;2.00;;;;;;;17.86;100.00;101092.41;689432;28;1217;-59
2023/09/06 00:22:46;;;;;;;4.90;2.00;;;;;;;17.86;100.00;101092.41;689333;28;1214;-60
2023/09/06 00:23:12;;;;;;;4.65;1.95;;;;;;;17.85;100.00;101096.84;689283;28;2027;-60
2023/09/06 00:23:32;;;;;;;3.22;2.10;;;;;;;17.84;100.00;101089.81;685374;28;956;-60
2023/09/06 00:23:53;;;;;;;3.27;1.90;;;;;;;17.84;100.00;101088.94;683204;28;1000;-60
2023/09/06 00:24:16;;;;;;;3.17;1.80;;;;;;;17.82;100.00;101088.09;684576;28;1454;-60
2023/09/06 00:24:37;;;;;;;3.55;1.80;;;;;;;17.81;100.00;101089.03;685125;28;1416;-60
2023/09/06 00:24:57;;;;;;;3.63;1.90;;;;;;;17.81;100.00;101089.03;685147;28;4384;-60
2023/09/06 00:25:18;;;;;;;3.53;1.98;;;;;;;17.77;100.00;101095.31;686915;28;1743;-61
2023/09/06 00:25:38;;;;;;;3.67;2.10;;;;;;;17.76;100.00;101091.78;692387;28;995;-61
2023/09/06 00:25:59;;;;;;;4.10;2.13;;;;;;;17.77;100.00;101087.41;692458;28;948;-61
2023/09/06 00:26:19;;;;;;;3.07;2.10;;;;;;;17.77;100.00;101088.25;689625;28;1970;-60
2023/09/06 00:26:41;;;;;;;3.78;2.00;;;;;;;17.77;100.00;101092.69;688746;28;888;-61
2023/09/06 00:27:03;;;;;;;4.25;2.10;;;;;;;17.75;100.00;101092.72;689442;28;1293;-61
2023/09/06 00:27:24;;;;;;;3.47;1.92;;;;;;;17.75;100.00;101090.09;687961;28;2435;-60
2023/09/06 00:27:44;;;;;;;3.33;1.77;;;;;;;17.77;100.00;101095.31;688097;28;4427;-60
2023/09/06 00:28:05;;;;;;;3.40;1.80;;;;;;;17.76;100.00;101093.59;688693;28;992;-61
2023/09/06 00:28:26;;;;;;;3.38;1.90;;;;;;;17.76;100.00;101093.59;688660;28;916;-61
2023/09/06 00:28:47;;;;;;;3.42;1.90;;;;;;;17.77;100.00;101095.31;691068;28;852;-60
2023/09/06 00:29:07;;;;;;;3.40;1.97;;;;;;;17.76;100.00;101101.50;687386;28;1850;-60
2023/09/06 00:29:28;;;;;;;3.50;1.80;;;;;;;17.77;100.00;101092.69;687887;28;968;-61
2023/09/06 00:29:48;;;;;;;4.50;1.80;;;;;;;17.76;100.00;101096.22;687810;28;778;-60
2023/09/06 00:30:09;;;;;;;4.13;2.00;;;;;;;17.75;100.00;101098.03;687348;28;2333;-59
2023/09/06 00:30:30;;;;;;;3.33;1.85;;;;;;;17.72;100.00;101090.16;688339;28;806;-60
2023/09/06 00:30:51;;;;;;;3.97;1.90;;;;;;;17.73;100.00;101094.53;685711;28;4395;-61
2023/09/06 00:31:11;;;;;;;4.35;2.00;;;;;;;17.74;100.00;101098.06;686448;28;1581;-61
2023/09/06 00:31:34;;;;;;;3.80;2.00;;;;;;;17.73;100.00;101098.97;686518;28;908;-60
2023/09/06 00:31:55;;;;;;;3.75;2.10;;;;;;;17.72;100.00;101092.78;690839;28;999;-60
2023/09/06 00:32:15;;;;;;;3.97;2.05;;;;;;;17.72;100.00;101094.56;683393;28;1817;-61
2023/09/06 00:32:36;;;;;;;4.07;1.93;;;;;;;17.71;100.00;101093.72;684056;28;2249;-61
2023/09/06 00:32:58;;;;;;;3.10;1.83;;;;;;;17.71;100.00;101093.72;683614;28;1242;-60
2023/09/06 00:33:19;;;;;;;2.88;1.90;;;;;;;17.70;100.00;101091.97;683044;28;1675;-61
2023/09/06 00:33:39;;;;;;;3.10;2.07;;;;;;;17.69;100.00;101090.25;682298;28;1226;-60
2023/09/06 00:34:00;;;;;;;3.88;2.03;;;;;;;17.69;100.00;101095.53;684816;28;4366;-60
2023/09/06 00:34:21;;;;;;;3.83;1.90;;;;;;;17.68;100.00;101094.66;683668;28;1860;-61
2023/09/06 00:34:46;;;;;;;3.83;1.90;;;;;;;17.69;100.00;101103.47;684917;28;1313;-60
2023/09/06 00:35:07;;;;;;;3.50;2.00;;;;;;;17.68;100.00;101097.31;685136;28;955;-61
2023/09/06 00:35:32;;;;;;;3.90;2.00;;;;;;;17.67;100.00;101098.22;685350;28;1970;-60
2023/09/06 00:35:54;;;;;;;3.58;1.98;;;;;;;17.68;100.00;101091.13;685130;28;1394;-61
2023/09/06 00:36:14;;;;;;;4.10;2.20;;;;;;;17.66;100.00;101092.97;685474;28;1469;-59
2023/09/06 00:36:34;;;;;;;4.18;2.13;;;;;;;17.65;100.00;101092.13;683531;28;916;-59
2023/09/06 00:36:55;;;;;;;3.40;1.90;;;;;;;17.63;100.00;101091.28;683324;28;4372;-60
2023/09/06 00:37:15;;;;;;;3.30;2.00;;;;;;;17.62;100.00;101097.47;683105;28;1784;-60
2023/09/06 00:37:36;;;;;;;3.67;1.88;;;;;;;17.63;100.00;101093.06;683252;28;1274;-60
2023/09/06 00:38:00;;;;;;;3.75;1.90;;;;;;;17.62;100.00;101094.81;683214;28;1293;-61
2023/09/06 00:38:20;;;;;;;3.70;2.10;;;;;;;17.62;100.00;101096.59;683375;28;2210;-61
2023/09/06 00:38:41;;;;;;;3.83;2.00;;;;;;;17.59;100.00;101089.63;685842;28;5804;-60
2023/09/06 00:39:03;;;;;;;4.10;1.98;;;;;;;17.58;100.00;101095.81;683893;28;1293;-61
2023/09/06 00:39:27;;;;;;;3.15;1.95;;;;;;;17.58;100.00;101095.81;683372;28;2309;-59
2023/09/06 00:39:48;;;;;;;3.65;2.00;;;;;;;17.57;100.00;101091.47;686811;28;4769;-60
2023/09/06 00:40:14;;;;;;;3.90;2.00;;;;;;;17.58;100.00;101094.97;686474;28;2241;-60
2023/09/06 00:40:36;;;;;;;4.82;1.90;;;;;;;17.55;100.00;101093.25;686671;28;893;-59
2023/09/06 00:40:57;;;;;;;3.72;1.80;;;;;;;17.54;100.00;101091.53;688963;28;1323;-59
2023/09/06 00:41:17;;;;;;;2.93;1.73;;;;;;;17.54;100.00;101086.22;686365;28;2212;-59
2023/09/06 00:41:40;;;;;;;3.30;2.00;;;;;;;17.53;100.00;101085.38;687755;28;1405;-61
2023/09/06 00:42:01;;;;;;;3.83;1.98;;;;;;;17.55;100.00;101087.13;687416;28;1347;-60
2023/09/06 00:42:24;;;;;;;4.43;1.97;;;;;;;17.54;100.00;101083.59;687298;28;1679;-61
2023/09/06 00:42:51;;;;;;;3.65;2.00;;;;;;;17.54;100.00;101086.22;688968;28;4399;-60
2023/09/06 00:43:12;;;;;;;3.42;2.10;;;;;;;17.53;100.00;101087.16;685374;28;1821;-60
2023/09/06 00:43:32;;;;;;;4.20;2.20;;;;;;;17.51;100.00;101086.31;686565;28;1578;-59
2023/09/06 00:43:53;;;;;;;3.77;2.10;;;;;;;17.50;100.00;101089.88;685332;28;1289;-61
2023/09/06 00:44:15;;;;;;;3.33;2.08;;;;;;;17.46;100.00;101089.09;682719;28;2622;-60
2023/09/06 00:44:35;;;;;;;3.95;2.30;;;;;;;17.48;100.00;101094.34;683146;28;1379;-60
2023/09/06 00:44:56;;;;;;;3.70;2.07;;;;;;;17.48;100.00;101089.06;684250;28;1000;-59
2023/09/06 00:45:21;;;;;;;3.63;1.90;;;;;;;17.47;100.00;101087.31;680452;28;2310;-60
2023/09/06 00:45:44;;;;;;;3.53;2.00;;;;;;;17.45;100.00;101084.72;683121;28;4373;-60
2023/09/06 00:46:07;;;;;;;3.78;2.10;;;;;;;17.45;100.00;101091.78;687496;28;1298;-61
2023/09/06 00:46:28;;;;;;;3.50;1.92;;;;;;;17.44;100.00;101088.25;687632;28;865;-61
2023/09/06 00:46:48;;;;;;;3.83;1.95;;;;;;;17.42;100.00;101086.56;685051;28;925;-60
2023/09/06 00:47:09;;;;;;;3.77;2.00;;;;;;;17.41;100.00;101085.69;683620;28;1800;-59
2023/09/06 00:47:29;;;;;;;3.38;1.90;;;;;;;17.36;100.00;101085.84;684930;28;952;-60
2023/09/06 00:47:51;;;;;;;3.78;2.08;;;;;;;17.36;100.00;101092.88;685217;28;1214;-61
2023/09/06 00:48:13;;;;;;;3.92;2.28;;;;;;;17.33;100.00;101088.56;681594;28;1389;-61
2023/09/06 00:48:35;;;;;;;3.42;2.00;;;;;;;17.29;100.00;101089.56;681142;28;1614;-60
2023/09/06 00:48:58;;;;;;;5.00;1.90;;;;;;;17.25;100.00;101087.91;685388;28;4465;-60
2023/09/06 00:49:18;;;;;;;4.13;2.10;;;;;;;17.24;100.00;101083.50;683511;28;1481;-59
2023/09/06 00:49:39;;;;;;;3.97;1.90;;;;;;;17.22;100.00;101087.94;684871;28;980;-60
2023/09/06 00:49:59;;;;;;;3.63;2.00;;;;;;;17.22;100.00;101087.94;686104;28;1144;-61
2023/09/06 00:50:20;;;;;;;3.05;1.92;;;;;;;17.22;100.00;101085.31;687011;28;2342;-60
2023/09/06 00:50:42;;;;;;;3.17;1.80;;;;;;;17.22;100.00;101087.09;685500;28;1479;-60
2023/09/06 00:51:07;;;;;;;3.60;2.00;;;;;;;17.21;100.00;101082.72;686604;28;876;-61
2023/09/06 00:51:28;;;;;;;3.38;1.88;;;;;;;17.18;100.00;101088.94;687659;28;1821;-60
2023/09/06 00:51:50;;;;;;;3.40;1.73;;;;;;;17.17;100.00;101081.94;688090;28;4332;-60
2023/09/06 00:52:11;;;;;;;4.35;2.20;;;;;;;17.15;100.00;101084.59;686116;28;2499;-61
2023/09/06 00:52:31;;;;;;;3.97;2.27;;;;;;;17.15;100.00;101087.22;689614;28;1138;-59
2023/09/06 00:52:52;;;;;;;4.10;2.20;;;;;;;17.16;100.00;101090.75;690577;28;1295;-60
2023/09/06 00:53:13;;;;;;;3.55;2.00;;;;;;;17.17;100.00;101089.88;689155;28;2434;-60
2023/09/06 00:53:39;;;;;;;4.05;2.10;;;;;;;17.16;100.00;101088.13;689475;28;1235;-61
2023/09/06 00:54:00;;;;;;;3.33;1.92;;;;;;;17.14;100.00;101084.63;687470;28;1004;-61
2023/09/06 00:54:20;;;;;;;3.70;2.10;;;;;;;17.14;100.00;101087.28;686568;28;1687;-61
2023/09/06 00:54:40;;;;;;;3.70;2.10;;;;;;;17.14;100.00;101084.63;688067;28;4381;-61
2023/09/06 00:55:01;;;;;;;3.80;2.00;;;;;;;17.11;100.00;101090.91;687525;28;939;-60
2023/09/06 00:55:22;;;;;;;3.33;1.90;;;;;;;17.10;100.00;101083.88;686336;28;2130;-61
2023/09/06 00:55:42;;;;;;;3.00;1.77;;;;;;;17.10;100.00;101091.78;688019;28;782;-59
2023/09/06 00:56:03;;;;;;;3.77;2.00;;;;;;;17.09;100.00;101091.84;690087;28;1088;-60
2023/09/06 00:56:24;;;;;;;3.83;1.95;;;;;;;17.08;100.00;101098.88;689079;28;1441;-61
2023/09/06 00:56:44;;;;;;;3.70;2.00;;;;;;;17.07;100.00;101085.69;687354;28;897;-60
2023/09/06 00:57:05;;;;;;;4.00;2.10;;;;;;;17.06;100.00;101090.13;688078;28;943;-60
2023/09/06 00:57:25;;;;;;;3.35;2.00;;;;;;;17.06;100.00;101091.88;686785;28;2306;-60
2023/09/06 00:57:47;;;;;;;4.07;2.10;;;;;;;17.05;100.00;101088.38;689162;28;4365;-60
2023/09/06 00:58:08;;;;;;;3.80;2.15;;;;;;;17.02;100.00;101091.97;690728;28;1368;-61
2023/09/06 00:58:30;;;;;;;4.60;2.10;;;;;;;17.01;100.00;101092.88;689889;28;909;-61
2023/09/06 00:58:50;;;;;;;4.20;2.00;;;;;;;17.01;100.00;101086.72;687330;28;1016;-60
2023/09/06 00:59:13;;;;;;;3.53;1.98;;;;;;;17.01;100.00;101082.31;685255;28;1852;-61
2023/09/06 00:59:34;;;;;;;3.83;2.10;;;;;;;17.00;100.00;101088.50;682869;28;865;-61
2023/09/06 00:59:59;;;;;;;3.85;2.00;;;;;;;17.00;100.00;101085.88;680472;28;1420;-61
2023/09/06 01:00:22;;;;;;;3.58;2.00;;;;;;;16.96;100.00;101093.88;681656;28;1760;-59
2023/09/06 01:00:44;;;;;;;3.88;2.10;;;;;;;16.95;100.00;101092.19;685052;28;4313;-60
2023/09/06 01:01:05;;;;;;;3.55;2.00;;;;;;;16.96;100.00;101089.50;688699;28;790;-60
2023/09/06 01:01:25;;;;;;;3.60;1.90;;;;;;;16.96;100.00;101091.25;690573;28;1865;-60
2023/09/06 01:01:46;;;;;;;3.70;2.10;;;;;;;16.94;100.00;101087.78;690059;28;1250;-61
2023/09/06 01:02:06;;;;;;;3.28;2.00;;;;;;;16.94;100.00;101093.06;690139;28;888;-60
2023/09/06 01:02:27;;;;;;;2.90;1.90;;;;;;;16.92;100.00;101093.13;689137;28;2360;-59
2023/09/06 01:02:51;;;;;;;3.30;2.00;;;;;;;16.92;100.00;101090.47;688957;28;970;-61
2023/09/06 01:03:12;;;;;;;3.73;2.23;;;;;;;16.92;100.00;101095.75;686209;28;1485;-60
2023/09/06 01:03:32;;;;;;;3.47;2.10;;;;;;;16.91;100.00;101094.00;688798;28;941;-61
2023/09/06 01:03:52;;;;;;;3.80;2.22;;;;;;;16.91;100.00;101091.38;679522;29;4396;-58
2023/09/06 01:04:13;;;;;;;3.30;2.00;;;;;;;16.90;100.00;101099.34;678539;29;1577;-61
2023/09/06 01:04:33;;;;;;;3.50;1.97;;;;;;;16.89;100.00;101098.47;677706;29;830;-60
2023/09/06 01:04:54;;;;;;;3.50;1.90;;;;;;;16.88;100.00;101095.81;678292;29;1273;-61
2023/09/06 01:05:16;;;;;;;3.75;2.00;;;;;;;16.88;100.00;101091.41;679665;29;1441;-60
2023/09/06 01:05:47;;;;;;;4.88;2.15;;;;;;;16.89;100.00;101097.59;682078;28;1389;-60
2023/09/06 01:06:25;;;;;;;3.45;1.98;;;;;;;16.88;100.00;101090.53;687711;28;872;-61
2023/09/06 01:06:57;;;;;;;3.92;2.05;;;;;;;16.89;100.00;101093.19;688841;28;4435;-60
2023/09/06 01:07:18;;;;;;;4.00;2.33;;;;;;;16.88;100.00;101101.97;689047;28;1759;-61
2023/09/06 01:07:41;;;;;;;3.90;2.40;;;;;;;16.86;100.00;101098.50;687414;28;1276;-60
2023/09/06 01:08:06;;;;;;;4.20;2.30;;;;;;;16.86;100.00;101095.84;684873;28;1514;-60
2023/09/06 01:08:41;;;;;;;3.70;2.10;;;;;;;16.83;100.00;101095.94;685777;28;1994;-61
2023/09/06 01:09:05;;;;;;;3.50;2.20;;;;;;;16.81;100.00;101097.75;687054;28;1106;-61
2023/09/06 01:09:29;;;;;;;3.60;1.90;;;;;;;16.81;100.00;101095.97;687018;28;1693;-60
2023/09/06 01:09:49;;;;;;;4.32;1.90;;;;;;;16.80;100.00;101103.94;690776;28;4401;-60
2023/09/06 01:10:10;;;;;;;5.27;2.03;;;;;;;16.80;100.00;101099.50;688479;28;1758;-61
2023/09/06 01:10:34;;;;;;;4.25;2.22;;;;;;;16.78;100.00;101101.34;685089;28;1231;-61
2023/09/06 01:11:19;;;;;;;3.63;2.20;;;;;;;16.77;100.00;101094.31;686705;28;1410;-60
2023/09/06 01:11:40;;;;;;;3.38;1.95;;;;;;;16.78;100.00;101106.63;687425;28;1422;-60
2023/09/06 01:12:00;;;;;;;3.67;2.05;;;;;;;16.78;100.00;101103.97;687213;28;1145;-61
2023/09/06 01:12:21;;;;;;;3.23;2.00;;;;;;;16.76;100.00;101097.00;683389;28;1138;-60
2023/09/06 01:12:41;;;;;;;3.70;2.10;;;;;;;16.76;100.00;101107.56;678503;29;4630;-61
2023/09/06 01:13:02;;;;;;;4.13;2.20;;;;;;;16.75;100.00;101103.16;679199;29;1185;-61
2023/09/06 01:13:22;;;;;;;4.20;1.90;;;;;;;16.71;100.00;101104.13;678344;29;1994;-60
2023/09/06 01:13:42;;;;;;;4.60;2.00;;;;;;;16.69;100.00;101110.31;683441;28;880;-61
2023/09/06 01:14:03;;;;;;;3.88;1.98;;;;;;;16.67;100.00;101100.72;682537;28;882;-61
2023/09/06 01:14:23;;;;;;;3.90;2.10;;;;;;;16.68;100.00;101110.34;683578;28;2356;-61
2023/09/06 01:14:44;;;;;;;3.97;2.20;;;;;;;16.67;100.00;101104.22;690432;28;1227;-61
2023/09/06 01:15:05;;;;;;;3.80;2.00;;;;;;;16.66;100.00;101107.75;686751;28;1519;-61
2023/09/06 01:15:25;;;;;;;4.30;2.10;;;;;;;16.66;100.00;101105.13;684687;28;1989;-61
2023/09/06 01:15:48;;;;;;;4.47;2.10;;;;;;;16.65;100.00;101111.28;686619;28;4536;-61
2023/09/06 01:16:09;;;;;;;3.40;1.98;;;;;;;16.64;100.00;101109.56;690248;28;1214;-60
2023/09/06 01:16:45;;;;;;;4.30;2.00;;;;;;;16.64;100.00;101106.03;689522;28;1275;-61
2023/09/06 01:17:10;;;;;;;4.13;2.13;;;;;;;16.62;100.00;101108.72;692106;28;916;-61
2023/09/06 01:17:32;;;;;;;4.05;2.10;;;;;;;16.62;100.00;101111.38;690108;28;1311;-61
2023/09/06 01:17:54;;;;;;;4.40;2.10;;;;;;;16.59;100.00;101110.59;690070;28;1299;-60
2023/09/06 01:18:15;;;;;;;3.97;2.20;;;;;;;16.57;100.00;101113.22;687733;28;1795;-60
2023/09/06 01:18:36;;;;;;;3.83;2.05;;;;;;;16.57;100.00;101110.59;688616;28;886;-60
2023/09/06 01:18:57;;;;;;;4.43;2.17;;;;;;;16.56;100.00;101108.00;686054;28;4570;-60
2023/09/06 01:19:18;;;;;;;4.88;2.10;;;;;;;16.53;100.00;101108.94;685260;28;1802;-61
2023/09/06 01:19:45;;;;;;;4.07;2.00;;;;;;;16.50;100.00;101107.25;687534;28;1264;-61
2023/09/06 01:20:23;;;;;;;4.60;2.20;;;;;;;16.51;100.00;101113.38;685029;28;933;-60
2023/09/06 01:20:52;;;;;;;4.18;2.10;;;;;;;16.51;100.00;101111.59;686327;28;893;-60
2023/09/06 01:21:15;;;;;;;4.43;2.20;;;;;;;16.52;100.00;101112.50;686511;28;1912;-61
2023/09/06 01:22:09;;;;;;;3.35;2.00;;;;;;;16.52;100.00;101112.50;684620;28;1099;-61
2023/09/06 01:22:38;;;;;;;4.05;2.15;;;;;;;16.47;100.00;101106.44;685969;28;4765;-61
2023/09/06 01:23:32;;;;;;;4.82;2.17;;;;;;;16.42;100.00;101114.47;686659;28;1186;-60
2023/09/06 01:23:54;;;;;;;3.65;2.20;;;;;;;16.39;100.00;101116.28;688190;28;914;-59
2023/09/06 01:24:16;;;;;;;4.90;2.50;;;;;;;16.36;100.00;101113.72;688527;28;1485;-60
2023/09/06 01:24:38;;;;;;;4.07;2.20;;;;;;;16.37;100.00;101105.78;688823;28;1294;-61
2023/09/06 01:24:59;;;;;;;3.65;2.10;;;;;;;16.37;100.00;101115.47;690904;28;4421;-60
2023/09/06 01:25:20;;;;;;;4.30;2.25;;;;;;;16.37;100.00;101111.06;692077;28;1687;-59
2023/09/06 01:25:41;;;;;;;4.93;2.40;;;;;;;16.37;100.00;101112.84;691895;28;917;-60
2023/09/06 01:26:02;;;;;;;3.75;2.03;;;;;;;16.34;100.00;101106.69;692668;28;1286;-61
2023/09/06 01:26:23;;;;;;;4.85;2.10;;;;;;;16.34;100.00;101111.97;688229;28;1772;-61
2023/09/06 01:26:43;;;;;;;3.60;1.90;;;;;;;16.34;100.00;101116.41;688903;28;1244;-61
2023/09/06 01:27:05;;;;;;;3.38;2.13;;;;;;;16.32;100.00;101113.81;685426;28;912;-61
2023/09/06 01:27:26;;;;;;;3.83;2.13;;;;;;;16.29;100.00;101113.84;688114;28;1459;-60
2023/09/06 01:27:47;;;;;;;3.60;2.03;;;;;;;16.29;100.00;101118.25;686025;28;4658;-60
2023/09/06 01:28:07;;;;;;;3.90;2.10;;;;;;;16.29;100.00;101116.47;687137;28;1321;-60
2023/09/06 01:28:28;;;;;;;3.95;2.13;;;;;;;16.30;100.00;101109.44;684943;28;2329;-61
2023/09/06 01:28:49;;;;;;;4.30;2.30;;;;;;;16.31;100.00;101113.81;686103;28;801;-60
2023/09/06 01:29:09;;;;;;;3.60;2.20;;;;;;;16.30;100.00;101115.59;686532;28;3703;-61
2023/09/06 01:29:31;;;;;;;3.28;1.90;;;;;;;16.27;100.00;101118.28;686981;28;2431;-60
2023/09/06 01:29:51;;;;;;;4.03;1.92;;;;;;;16.26;100.00;101110.41;687307;28;1295;-60
2023/09/06 01:30:12;;;;;;;4.72;2.03;;;;;;;16.25;100.00;101114.81;686034;28;1801;-60
2023/09/06 01:30:32;;;;;;;3.93;2.20;;;;;;;16.25;100.00;101116.59;687758;28;778;-60
2023/09/06 01:30:54;;;;;;;3.93;2.30;;;;;;;16.23;100.00;101116.63;684380;28;4707;-61
2023/09/06 01:31:14;;;;;;;4.20;2.30;;;;;;;16.20;100.00;101108.78;683048;28;1991;-61
2023/09/06 01:31:35;;;;;;;4.20;2.50;;;;;;;16.21;100.00;101114.91;684536;28;833;-60
2023/09/06 01:31:55;;;;;;;4.00;2.30;;;;;;;16.21;100.00;101110.50;686544;28;1245;-60
2023/09/06 01:32:16;;;;;;;3.72;2.20;;;;;;;16.23;100.00;101113.13;683652;28;1451;-61
2023/09/06 01:32:37;;;;;;;3.53;2.00;;;;;;;16.24;100.00;101105.19;685887;28;805;-61
2023/09/06 01:32:57;;;;;;;3.60;2.00;;;;;;;16.22;100.00;101112.25;689210;28;968;-61
2023/09/06 01:33:18;;;;;;;4.03;2.10;;;;;;;16.21;100.00;101107.84;688307;28;2504;-61
2023/09/06 01:33:39;;;;;;;3.85;2.22;;;;;;;16.22;100.00;101108.75;687363;28;1197;-60
2023/09/06 01:33:59;;;;;;;3.50;2.20;;;;;;;16.18;100.00;101105.28;688929;28;4403;-61
2023/09/06 01:34:20;;;;;;;3.57;2.20;;;;;;;16.17;100.00;101114.09;688807;28;1527;-61
2023/09/06 01:34:40;;;;;;;3.80;2.10;;;;;;;16.15;100.00;101114.13;690247;28;1367;-60
2023/09/06 01:35:01;;;;;;;4.23;2.10;;;;;;;16.15;100.00;101108.00;690182;28;931;-60
2023/09/06 01:35:21;;;;;;;4.27;2.23;;;;;;;16.14;100.00;101115.06;688854;28;1973;-60
2023/09/06 01:35:42;;;;;;;3.70;2.20;;;;;;;16.13;100.00;101112.41;690310;28;1435;-61
2023/09/06 01:36:02;;;;;;;4.35;2.30;;;;;;;16.12;100.00;101110.72;689936;28;1401;-60
2023/09/06 01:36:23;;;;;;;4.60;2.47;;;;;;;16.12;100.00;101113.34;688934;28;1879;-60
2023/09/06 01:36:43;;;;;;;4.00;2.22;;;;;;;16.12;100.00;101113.34;685767;28;4422;-61
2023/09/06 01:37:04;;;;;;;3.80;2.10;;;;;;;16.10;100.00;101113.38;682469;28;1247;-61
2023/09/06 01:37:25;;;;;;;4.45;2.30;;;;;;;16.11;100.00;101111.59;683487;28;1507;-60
2023/09/06 01:37:45;;;;;;;3.67;2.03;;;;;;;16.11;100.00;101111.59;680092;28;1423;-60
2023/09/06 01:38:06;;;;;;;3.42;2.17;;;;;;;16.10;100.00;101110.75;682704;28;968;-60
2023/09/06 01:38:26;;;;;;;4.10;2.07;;;;;;;16.11;100.00;101119.50;683927;28;2591;-61
2023/09/06 01:38:47;;;;;;;3.50;2.00;;;;;;;16.07;100.00;101115.19;686300;28;5750;-61
2023/09/06 01:39:08;;;;;;;3.53;2.22;;;;;;;16.02;100.00;101115.31;688151;28;1302;-61
2023/09/06 01:39:29;;;;;;;4.88;2.40;;;;;;;16.02;100.00;101110.03;685168;28;1836;-61
2023/09/06 01:39:49;;;;;;;4.37;2.30;;;;;;;16.02;100.00;101115.31;685795;28;4561;-61
2023/09/06 01:40:17;;;;;;;4.23;2.20;;;;;;;16.01;100.00;101108.28;684623;28;1495;-61
2023/09/06 01:40:37;;;;;;;4.70;2.30;;;;;;;16.00;100.00;101109.19;684660;28;924;-61
2023/09/06 01:40:58;;;;;;;4.00;2.20;;;;;;;16.02;100.00;101114.41;685368;28;1383;-61
2023/09/06 01:41:18;;;;;;;4.40;2.30;;;;;;;16.04;100.00;101112.63;687635;28;1776;-61
2023/09/06 01:41:39;;;;;;;4.03;2.30;;;;;;;16.04;100.00;101113.50;687508;28;1323;-61
2023/09/06 01:41:59;;;;;;;3.83;2.27;;;;;;;16.04;100.00;101107.38;687470;28;845;-60
2023/09/06 01:42:22;;;;;;;3.88;2.28;;;;;;;16.03;100.00;101108.25;685939;28;1930;-60
2023/09/06 01:42:46;;;;;;;3.47;2.10;;;;;;;16.04;100.00;101117.91;685897;28;4356;-60
2023/09/06 01:43:08;;;;;;;5.25;2.30;;;;;;;16.01;100.00;101108.28;686575;28;1286;-61
2023/09/06 01:43:31;;;;;;;4.20;2.42;;;;;;;16.01;100.00;101113.56;683856;28;1803;-60
2023/09/06 01:43:54;;;;;;;3.67;2.25;;;;;;;16.00;100.00;101106.53;683429;28;914;-61
2023/09/06 01:44:14;;;;;;;5.30;2.40;;;;;;;16.00;100.00;101110.06;681087;28;1854;-61
2023/09/06 01:44:35;;;;;;;4.13;2.25;;;;;;;15.99;100.00;101110.06;685837;28;1269;-60